Time;durP1;ratioP1;P1;durP2;ratioP2;P2;SDS_P1;SDS_P2;PMS_P1;PMS_P2;Temp;Humidity;BMP_temperature;BMP_pressure;BME280_temperature;BME280_humidity;BME280_pressure;Samples;Min_cycle;Max_cycle;Signal;HPM_P1;HPM_P2
2022/03/11 00:00:51;;;;;;;18.55;11.48;;;5.80;83.90;;;;;;4930251;28;167009;-74
2022/03/11 00:03:19;;;;;;;18.95;11.52;;;5.80;84.60;;;;;;4989075;28;20046;-75
2022/03/11 00:05:45;;;;;;;18.30;10.68;;;5.70;84.90;;;;;;4911918;28;187916;-75
2022/03/11 00:08:12;;;;;;;19.55;10.65;;;5.70;84.70;;;;;;4966507;28;20050;-75
2022/03/11 00:10:38;;;;;;;20.15;10.73;;;5.60;85.40;;;;;;4933581;28;171314;-75
2022/03/11 00:13:04;;;;;;;18.73;10.70;;;5.60;85.40;;;;;;4981248;28;20054;-75
2022/03/11 00:15:30;;;;;;;18.60;10.10;;;5.60;85.80;;;;;;4955247;28;185518;-75
2022/03/11 00:17:57;;;;;;;19.30;10.73;;;5.60;86.20;;;;;;5008545;28;20738;-75
2022/03/11 00:20:24;;;;;;;18.30;10.45;;;5.50;87.50;;;;;;4936104;28;20077;-77
2022/03/11 00:22:51;;;;;;;20.90;11.32;;;5.50;87.50;;;;;;4975657;28;20069;-75
2022/03/11 00:25:19;;;;;;;20.77;10.32;;;5.50;87.50;;;;;;4954749;28;20058;-76
2022/03/11 00:27:46;;;;;;;18.35;10.00;;;5.50;88.10;;;;;;4972139;28;20078;-76
2022/03/11 00:30:13;;;;;;;19.42;10.43;;;5.50;88.00;;;;;;4936721;28;284307;-75
2022/03/11 00:32:40;;;;;;;19.33;10.48;;;5.40;90.30;;;;;;4960646;28;20057;-76
2022/03/11 00:35:11;;;;;;;20.60;10.23;;;5.40;88.90;;;;;;4944310;28;261167;-75
2022/03/11 00:37:39;;;;;;;18.80;10.07;;;5.30;89.10;;;;;;4962582;28;20069;-75
2022/03/11 00:40:06;;;;;;;19.40;10.68;;;5.30;90.20;;;;;;4937163;28;214252;-75
2022/03/11 00:42:33;;;;;;;19.13;10.60;;;5.20;89.80;;;;;;4989504;28;20057;-76
2022/03/11 00:45:00;;;;;;;19.27;10.23;;;5.20;90.50;;;;;;4940796;28;153517;-76
2022/03/11 00:47:27;;;;;;;21.73;10.57;;;5.10;90.60;;;;;;4983314;28;20112;-75
2022/03/11 00:49:53;;;;;;;19.95;10.65;;;5.10;90.40;;;;;;4940060;28;254145;-76
2022/03/11 00:52:19;;;;;;;17.15;9.90;;;5.00;90.70;;;;;;4976873;28;20042;-75
2022/03/11 00:54:45;;;;;;;19.92;10.27;;;5.00;91.10;;;;;;4940748;28;140220;-76
2022/03/11 00:57:11;;;;;;;17.85;10.65;;;4.90;91.10;;;;;;4969681;28;20053;-75
2022/03/11 00:59:37;;;;;;;17.98;10.27;;;4.90;91.40;;;;;;4945404;28;40293;-75
2022/03/11 01:02:03;;;;;;;18.75;10.18;;;4.80;91.90;;;;;;4984883;28;20050;-75
2022/03/11 01:04:29;;;;;;;17.65;9.90;;;4.80;92.20;;;;;;4930330;28;181693;-75
2022/03/11 01:06:55;;;;;;;17.42;9.98;;;4.70;92.70;;;;;;4984863;28;20391;-75
2022/03/11 01:09:21;;;;;;;18.27;10.15;;;4.70;93.10;;;;;;4942091;28;246988;-75
2022/03/11 01:11:48;;;;;;;20.23;10.32;;;4.70;93.20;;;;;;4982031;28;20510;-76
2022/03/11 01:14:15;;;;;;;17.48;10.15;;;4.60;93.70;;;;;;4971540;28;250880;-73
2022/03/11 01:16:41;;;;;;;15.93;9.48;;;4.60;94.00;;;;;;4959123;28;20475;-75
2022/03/11 01:19:07;;;;;;;23.85;9.68;;;4.50;94.10;;;;;;4969005;28;262203;-76
2022/03/11 01:21:33;;;;;;;16.02;9.73;;;4.50;94.50;;;;;;4931180;28;20090;-74
2022/03/11 01:23:59;;;;;;;17.35;9.80;;;4.50;94.80;;;;;;4968841;28;249948;-75
2022/03/11 01:26:26;;;;;;;18.98;9.55;;;4.40;95.10;;;;;;4975110;28;20037;-74
2022/03/11 01:28:53;;;;;;;17.15;9.57;;;4.40;95.40;;;;;;4951186;28;254552;-74
2022/03/11 01:31:19;;;;;;;18.27;9.52;;;4.40;95.50;;;;;;4942588;28;20434;-76
2022/03/11 01:33:46;;;;;;;16.55;9.20;;;4.30;96.30;;;;;;4976153;28;253542;-73
2022/03/11 01:36:13;;;;;;;18.30;9.23;;;4.30;96.60;;;;;;4939316;28;20038;-75
2022/03/11 01:38:40;;;;;;;17.52;9.52;;;4.30;97.20;;;;;;4984270;28;20054;-75
2022/03/11 01:41:06;;;;;;;17.98;8.88;;;4.30;97.10;;;;;;4937487;28;93378;-74
2022/03/11 01:44:08;;;;;;;19.25;9.85;;;4.30;97.70;;;;;;4983031;28;20058;-75
2022/03/11 01:46:35;;;;;;;16.55;8.63;;;4.30;97.70;;;;;;4944350;28;20054;-75
2022/03/11 01:49:04;;;;;;;16.92;9.20;;;4.20;98.20;;;;;;4998684;28;262344;-75
2022/03/11 01:51:32;;;;;;;16.65;8.98;;;4.20;98.70;;;;;;4969453;28;20585;-75
2022/03/11 01:53:59;;;;;;;17.17;8.77;;;4.30;98.40;;;;;;5004244;28;256625;-75
2022/03/11 01:56:26;;;;;;;17.38;9.20;;;4.20;98.50;;;;;;4943106;28;20065;-76
2022/03/11 01:58:56;;;;;;;17.90;9.55;;;4.20;99.10;;;;;;4986722;28;253552;-76
2022/03/11 02:01:23;;;;;;;16.80;9.38;;;4.20;99.50;;;;;;4946907;28;20479;-75
2022/03/11 02:03:50;;;;;;;21.10;10.18;;;4.20;99.40;;;;;;4951564;28;271105;-75
2022/03/11 02:06:18;;;;;;;19.13;9.90;;;4.10;99.40;;;;;;4947455;28;20065;-76
2022/03/11 02:08:44;;;;;;;18.52;9.55;;;4.20;99.90;;;;;;5000331;28;20059;-75
2022/03/11 02:11:13;;;;;;;15.68;9.25;;;4.10;99.90;;;;;;4924837;28;261135;-76
2022/03/11 02:13:47;;;;;;;17.52;9.43;;;4.20;99.90;;;;;;4970504;28;20046;-76
2022/03/11 02:16:26;;;;;;;17.08;10.07;;;4.20;99.90;;;;;;4933396;28;20061;-75
2022/03/11 02:18:52;;;;;;;24.47;10.60;;;4.10;99.90;;;;;;4989632;28;253424;-75
2022/03/11 02:21:22;;;;;;;20.98;10.35;;;4.10;99.90;;;;;;4968849;28;20217;-76
2022/03/11 02:23:53;;;;;;;19.88;10.25;;;4.10;99.90;;;;;;4968046;28;257581;-75
2022/03/11 02:26:22;;;;;;;20.48;10.80;;;4.10;99.90;;;;;;4953337;28;20080;-76
2022/03/11 02:28:49;;;;;;;18.95;10.57;;;4.10;99.90;;;;;;4950606;28;273722;-76
2022/03/11 02:31:16;;;;;;;20.67;10.88;;;4.10;99.90;;;;;;4955201;28;20042;-75
2022/03/11 02:33:42;;;;;;;19.40;10.05;;;4.10;99.90;;;;;;4970315;28;20412;-76
2022/03/11 02:36:09;;;;;;;19.23;10.82;;;4.10;99.90;;;;;;4933357;28;187575;-76
2022/03/11 02:38:36;;;;;;;20.70;11.23;;;4.00;99.90;;;;;;4982152;28;20050;-75
2022/03/11 02:41:03;;;;;;;20.75;10.82;;;4.00;99.90;;;;;;4940508;28;183214;-76
2022/03/11 02:43:29;;;;;;;20.33;11.23;;;4.00;99.90;;;;;;4965961;28;20079;-74
2022/03/11 02:45:55;;;;;;;22.27;11.50;;;4.00;99.90;;;;;;4930638;28;105270;-75
2022/03/11 02:48:22;;;;;;;19.80;11.70;;;3.90;99.90;;;;;;4973929;28;20062;-75
2022/03/11 02:50:48;;;;;;;21.48;11.50;;;3.90;99.90;;;;;;4941431;28;73513;-75
2022/03/11 02:53:14;;;;;;;22.08;12.43;;;3.90;99.90;;;;;;5013111;28;20054;-75
2022/03/11 02:55:40;;;;;;;20.15;11.73;;;3.90;99.90;;;;;;4956036;28;114333;-75
2022/03/11 02:58:06;;;;;;;23.75;12.13;;;3.90;99.90;;;;;;4992827;28;20439;-75
2022/03/11 03:00:32;;;;;;;21.23;12.35;;;3.90;99.90;;;;;;4935468;28;130370;-75
2022/03/11 03:02:59;;;;;;;22.40;12.48;;;3.90;99.90;;;;;;4978382;28;20161;-76
2022/03/11 03:05:25;;;;;;;23.00;12.32;;;3.90;99.90;;;;;;4944659;28;120408;-75
2022/03/11 03:07:51;;;;;;;24.08;13.73;;;3.90;99.90;;;;;;4996679;28;20051;-75
2022/03/11 03:10:17;;;;;;;21.10;12.80;;;3.80;99.90;;;;;;4961410;28;21128;-75
2022/03/11 03:12:44;;;;;;;22.58;13.10;;;3.80;99.90;;;;;;4965732;28;20049;-75
2022/03/11 03:15:10;;;;;;;25.02;13.82;;;3.80;99.90;;;;;;4933385;28;117050;-75
2022/03/11 03:17:37;;;;;;;24.25;13.90;;;3.80;99.90;;;;;;4977894;28;20326;-74
2022/03/11 03:20:05;;;;;;;23.55;13.40;;;3.70;99.90;;;;;;4946255;28;269330;-74
2022/03/11 03:22:31;;;;;;;26.38;13.52;;;3.70;99.90;;;;;;4976317;28;20058;-74
2022/03/11 03:24:57;;;;;;;26.30;13.90;;;3.70;99.90;;;;;;4935492;28;113845;-75
2022/03/11 03:27:24;;;;;;;25.30;14.35;;;3.60;99.90;;;;;;4958547;28;20054;-75
2022/03/11 03:29:50;;;;;;;22.63;13.88;;;3.60;99.90;;;;;;4931757;28;113290;-75
2022/03/11 03:32:16;;;;;;;26.75;14.07;;;3.60;99.90;;;;;;4959508;28;20046;-74
2022/03/11 03:34:42;;;;;;;25.17;13.98;;;3.60;99.90;;;;;;4948445;28;20586;-74
2022/03/11 03:37:11;;;;;;;25.00;14.05;;;3.70;99.90;;;;;;4979644;28;20058;-74
2022/03/11 03:39:40;;;;;;;23.55;13.68;;;3.60;99.90;;;;;;4956638;28;242457;-76
2022/03/11 03:42:06;;;;;;;25.27;15.38;;;3.60;99.90;;;;;;4995165;28;20500;-75
2022/03/11 03:44:33;;;;;;;23.25;13.70;;;3.60;99.90;;;;;;4962988;28;88315;-75
2022/03/11 03:47:00;;;;;;;25.58;14.40;;;3.60;99.90;;;;;;4984185;28;20039;-73
2022/03/11 03:49:28;;;;;;;26.20;14.80;;;3.60;99.90;;;;;;4940544;28;278024;-74
2022/03/11 03:51:54;;;;;;;24.65;15.73;;;3.60;99.90;;;;;;4991046;28;20051;-75
2022/03/11 03:54:21;;;;;;;25.73;15.00;;;3.60;99.90;;;;;;4939199;28;257451;-75
2022/03/11 03:56:47;;;;;;;26.58;14.35;;;3.60;99.90;;;;;;4974076;28;20030;-75
2022/03/11 03:59:15;;;;;;;25.92;15.52;;;3.60;99.90;;;;;;4970547;28;160020;-75
2022/03/11 04:01:43;;;;;;;24.45;14.70;;;3.50;99.90;;;;;;4927487;28;20052;-74
2022/03/11 04:04:11;;;;;;;24.50;15.73;;;3.50;99.90;;;;;;4934863;28;262980;-75
2022/03/11 04:06:40;;;;;;;31.67;16.15;;;3.40;99.90;;;;;;4940463;28;20151;-75
2022/03/11 04:09:07;;;;;;;25.85;15.77;;;3.40;99.90;;;;;;4955176;28;258789;-75
2022/03/11 04:11:34;;;;;;;26.80;16.55;;;3.40;99.90;;;;;;4963376;28;20109;-76
2022/03/11 04:14:01;;;;;;;28.75;15.68;;;3.30;99.90;;;;;;4969845;28;257349;-76
2022/03/11 04:16:27;;;;;;;29.85;16.98;;;3.40;99.90;;;;;;4959794;28;20076;-75
2022/03/11 04:18:53;;;;;;;28.90;17.10;;;3.30;99.90;;;;;;4987296;28;258437;-75
2022/03/11 04:21:20;;;;;;;27.00;16.08;;;3.30;99.90;;;;;;4988084;28;20037;-75
2022/03/11 04:23:50;;;;;;;28.25;16.60;;;3.30;99.90;;;;;;4967398;28;275554;-75
2022/03/11 04:26:16;;;;;;;28.38;17.40;;;3.30;99.90;;;;;;4960792;28;20030;-75
2022/03/11 04:28:43;;;;;;;29.80;17.50;;;3.30;99.90;;;;;;4984657;28;20065;-75
2022/03/11 04:31:11;;;;;;;26.70;16.17;;;3.30;99.90;;;;;;4926392;28;154955;-75
2022/03/11 04:33:39;;;;;;;31.83;17.67;;;3.20;99.90;;;;;;4983761;28;20070;-76
2022/03/11 04:36:07;;;;;;;29.45;16.83;;;3.10;99.90;;;;;;4930812;28;137556;-76
2022/03/11 04:38:34;;;;;;;30.20;18.05;;;3.10;99.90;;;;;;4985108;28;20050;-74
2022/03/11 04:41:01;;;;;;;34.58;18.17;;;3.10;99.90;;;;;;4938303;28;233501;-75
2022/03/11 04:43:27;;;;;;;31.95;18.25;;;3.10;99.90;;;;;;4981610;28;20046;-74
2022/03/11 04:45:54;;;;;;;30.88;16.98;;;3.10;99.90;;;;;;4946692;28;61021;-75
2022/03/11 04:48:20;;;;;;;31.42;17.02;;;3.00;99.90;;;;;;4983120;28;20062;-75
2022/03/11 04:50:46;;;;;;;30.00;17.25;;;3.00;99.90;;;;;;4938753;28;149060;-75
2022/03/11 04:53:12;;;;;;;29.58;18.70;;;3.00;99.90;;;;;;4989906;28;20161;-77
2022/03/11 04:55:39;;;;;;;32.10;18.92;;;3.00;99.90;;;;;;4929430;28;251801;-75
2022/03/11 04:58:05;;;;;;;30.35;18.02;;;3.00;99.90;;;;;;4985451;28;20046;-75
2022/03/11 05:00:31;;;;;;;31.15;18.67;;;2.90;99.90;;;;;;4953162;28;253502;-76
2022/03/11 05:02:58;;;;;;;30.80;18.88;;;2.90;99.90;;;;;;4991729;28;20424;-76
2022/03/11 05:05:25;;;;;;;35.17;19.00;;;2.90;99.90;;;;;;4918183;28;149523;-76
2022/03/11 05:07:51;;;;;;;30.05;18.58;;;2.90;99.90;;;;;;4958024;28;20393;-75
2022/03/11 05:10:18;;;;;;;32.67;19.27;;;2.90;99.90;;;;;;4948191;28;261185;-77
2022/03/11 05:12:44;;;;;;;30.58;18.40;;;2.80;99.90;;;;;;4977565;28;20050;-77
2022/03/11 05:15:11;;;;;;;34.08;19.15;;;2.80;99.90;;;;;;4948044;28;41286;-76
2022/03/11 05:17:37;;;;;;;32.60;18.17;;;2.80;99.90;;;;;;4984637;28;20062;-76
2022/03/11 05:20:04;;;;;;;32.28;18.67;;;2.80;99.90;;;;;;4942556;28;159154;-77
2022/03/11 05:22:30;;;;;;;30.70;18.65;;;2.80;99.90;;;;;;4981316;28;20043;-77
2022/03/11 05:24:56;;;;;;;32.58;19.40;;;2.80;99.90;;;;;;4932652;28;166672;-77
2022/03/11 05:27:22;;;;;;;31.50;19.10;;;2.80;99.90;;;;;;4982952;28;20046;-75
2022/03/11 05:29:48;;;;;;;32.88;19.00;;;2.70;99.90;;;;;;4947621;28;256051;-77
2022/03/11 05:32:16;;;;;;;31.50;18.83;;;2.80;99.90;;;;;;5002109;28;20170;-76
2022/03/11 05:34:43;;;;;;;30.85;19.40;;;2.80;99.90;;;;;;4945922;28;20057;-75
2022/03/11 05:37:10;;;;;;;28.83;18.65;;;2.80;99.90;;;;;;4971545;28;20050;-76
2022/03/11 05:39:36;;;;;;;34.80;19.98;;;2.70;99.90;;;;;;4937459;28;138270;-76
2022/03/11 05:42:04;;;;;;;31.70;19.15;;;2.70;99.90;;;;;;4983105;28;20503;-75
2022/03/11 05:44:30;;;;;;;29.90;18.98;;;2.70;99.90;;;;;;4967908;28;206298;-73
2022/03/11 05:46:56;;;;;;;32.28;18.63;;;2.70;99.90;;;;;;5002275;28;20042;-74
2022/03/11 05:49:23;;;;;;;31.45;19.05;;;2.70;99.90;;;;;;4947386;28;267548;-74
2022/03/11 05:51:50;;;;;;;31.13;19.70;;;2.70;99.90;;;;;;4979764;28;20388;-75
2022/03/11 05:54:16;;;;;;;34.05;19.50;;;2.70;99.90;;;;;;4955377;28;53979;-73
2022/03/11 05:56:42;;;;;;;33.38;17.75;;;2.60;99.90;;;;;;4964875;28;21287;-73
2022/03/11 05:59:08;;;;;;;29.58;18.05;;;2.60;99.90;;;;;;4970495;28;271961;-74
2022/03/11 06:01:35;;;;;;;32.25;20.20;;;2.60;99.90;;;;;;4952159;28;20045;-73
2022/03/11 06:04:03;;;;;;;31.83;18.33;;;2.60;99.90;;;;;;4963467;28;272041;-75
2022/03/11 06:06:30;;;;;;;30.45;18.88;;;2.60;99.90;;;;;;4981852;28;20057;-74
2022/03/11 06:08:56;;;;;;;34.22;18.38;;;2.60;99.90;;;;;;4968091;28;258510;-75
2022/03/11 06:11:23;;;;;;;31.08;19.88;;;2.70;99.90;;;;;;4939286;28;20042;-73
2022/03/11 06:13:50;;;;;;;33.35;18.50;;;2.70;99.90;;;;;;4968291;28;267296;-73
2022/03/11 06:16:16;;;;;;;30.30;18.60;;;2.60;99.90;;;;;;4972124;28;20054;-74
2022/03/11 06:18:43;;;;;;;31.85;17.60;;;2.70;99.90;;;;;;4986892;28;20054;-74
2022/03/11 06:21:09;;;;;;;34.03;19.88;;;2.60;99.90;;;;;;4950705;28;215975;-73
2022/03/11 06:23:36;;;;;;;33.58;19.45;;;2.60;99.90;;;;;;4989658;28;20042;-74
2022/03/11 06:26:03;;;;;;;31.65;19.38;;;2.60;99.90;;;;;;4938159;28;46766;-74
2022/03/11 06:28:29;;;;;;;33.40;20.73;;;2.60;99.90;;;;;;4971764;28;20046;-74
2022/03/11 06:30:56;;;;;;;34.97;19.33;;;2.60;99.90;;;;;;4941098;28;261615;-74
2022/03/11 06:33:22;;;;;;;33.20;20.15;;;2.60;99.90;;;;;;4987569;28;20476;-73
2022/03/11 06:35:51;;;;;;;34.05;19.52;;;2.60;99.90;;;;;;4936550;28;271715;-73
2022/03/11 06:38:18;;;;;;;34.22;19.13;;;2.60;99.90;;;;;;4986152;28;20220;-73
2022/03/11 06:40:44;;;;;;;30.67;19.70;;;2.60;99.90;;;;;;4936242;28;251707;-73
2022/03/11 06:43:11;;;;;;;33.28;19.00;;;2.60;99.90;;;;;;4984970;28;20463;-73
2022/03/11 06:45:37;;;;;;;32.17;19.27;;;2.70;99.90;;;;;;4938860;28;251563;-74
2022/03/11 06:48:04;;;;;;;32.45;18.13;;;2.70;99.90;;;;;;4982340;28;20065;-73
2022/03/11 06:50:30;;;;;;;31.70;19.02;;;2.70;99.90;;;;;;4943654;28;36115;-73
2022/03/11 06:52:56;;;;;;;28.40;17.65;;;2.80;99.90;;;;;;4989312;28;20057;-72
2022/03/11 06:55:22;;;;;;;31.48;19.83;;;2.80;99.90;;;;;;4934822;28;240960;-73
2022/03/11 06:57:49;;;;;;;32.40;19.42;;;2.80;99.90;;;;;;4993692;28;20054;-74
2022/03/11 07:00:15;;;;;;;29.00;18.27;;;2.80;99.90;;;;;;4938977;28;248027;-73
2022/03/11 07:02:42;;;;;;;31.85;18.77;;;2.90;99.90;;;;;;4990425;28;20051;-73
2022/03/11 07:05:09;;;;;;;32.03;18.27;;;2.90;99.90;;;;;;4920094;28;261063;-73
2022/03/11 07:07:36;;;;;;;28.83;17.55;;;2.90;99.90;;;;;;4992669;28;20520;-72
2022/03/11 07:10:04;;;;;;;31.92;18.55;;;3.00;99.90;;;;;;4966360;28;241269;-72
2022/03/11 07:12:31;;;;;;;34.35;19.42;;;3.00;99.90;;;;;;4981919;28;20054;-72
2022/03/11 07:15:01;;;;;;;31.98;18.10;;;3.10;99.90;;;;;;4943956;28;256275;-72
2022/03/11 07:17:27;;;;;;;29.45;18.88;;;3.10;99.90;;;;;;4988038;28;20058;-72
2022/03/11 07:19:53;;;;;;;33.65;18.25;;;3.20;99.90;;;;;;4945355;28;126941;-72
2022/03/11 07:22:20;;;;;;;39.13;18.88;;;3.20;99.90;;;;;;4973208;28;20060;-73
2022/03/11 07:24:46;;;;;;;31.35;18.75;;;3.30;99.90;;;;;;4944909;28;155546;-73
2022/03/11 07:27:13;;;;;;;31.45;17.20;;;3.30;99.90;;;;;;4979979;28;20396;-73
2022/03/11 07:29:40;;;;;;;32.30;18.13;;;3.30;99.90;;;;;;4936324;28;234848;-72
2022/03/11 07:32:08;;;;;;;28.75;16.65;;;3.40;99.90;;;;;;4974219;28;20061;-73
2022/03/11 07:34:34;;;;;;;31.00;18.50;;;3.40;99.90;;;;;;4948362;28;256823;-72
2022/03/11 07:37:01;;;;;;;30.67;17.92;;;3.50;99.90;;;;;;4983417;28;20069;-73
2022/03/11 07:39:27;;;;;;;34.85;17.90;;;3.50;99.90;;;;;;4949022;28;275325;-73
2022/03/11 07:41:53;;;;;;;29.80;18.50;;;3.60;99.90;;;;;;5013499;28;20435;-73
2022/03/11 07:44:21;;;;;;;33.20;18.70;;;3.60;99.90;;;;;;4953053;28;273542;-73
2022/03/11 07:46:47;;;;;;;28.88;16.85;;;3.60;99.90;;;;;;5003414;28;20542;-72
2022/03/11 07:49:14;;;;;;;27.98;17.17;;;3.70;99.90;;;;;;4975469;28;114086;-73
2022/03/11 07:51:40;;;;;;;29.83;17.88;;;3.70;99.90;;;;;;4949524;28;20038;-72
2022/03/11 07:54:06;;;;;;;28.40;18.13;;;3.80;99.90;;;;;;4972416;28;258552;-72
2022/03/11 07:56:33;;;;;;;28.75;18.00;;;3.90;99.90;;;;;;4954621;28;20503;-73
2022/03/11 07:58:59;;;;;;;29.73;17.90;;;3.90;99.90;;;;;;4975643;28;263674;-72
2022/03/11 08:01:26;;;;;;;29.30;18.50;;;3.90;99.90;;;;;;4970815;28;20053;-72
2022/03/11 08:03:52;;;;;;;37.20;18.50;;;4.00;99.90;;;;;;4938505;28;269125;-73
2022/03/11 08:06:19;;;;;;;29.15;17.17;;;4.00;99.90;;;;;;4955625;28;20467;-73
2022/03/11 08:08:45;;;;;;;31.45;18.45;;;4.10;99.90;;;;;;4992008;28;275858;-73
2022/03/11 08:11:13;;;;;;;29.67;17.48;;;4.10;99.90;;;;;;4953035;28;20818;-73
2022/03/11 08:13:40;;;;;;;33.75;18.90;;;4.20;99.90;;;;;;4985171;28;20066;-73
2022/03/11 08:16:07;;;;;;;33.05;18.00;;;4.40;99.90;;;;;;4957520;28;246272;-72
2022/03/11 08:18:34;;;;;;;29.13;18.58;;;4.40;99.90;;;;;;4989188;28;20050;-73
2022/03/11 08:21:02;;;;;;;30.50;17.33;;;4.40;99.90;;;;;;4957573;28;92297;-72
2022/03/11 08:23:29;;;;;;;30.50;18.08;;;4.50;99.90;;;;;;5001166;28;20496;-73
2022/03/11 08:25:55;;;;;;;30.80;17.55;;;4.50;99.90;;;;;;4926749;28;156939;-73
2022/03/11 08:28:23;;;;;;;37.40;18.95;;;4.60;99.90;;;;;;4986438;28;20077;-73
2022/03/11 08:30:50;;;;;;;29.70;18.45;;;4.70;99.90;;;;;;4932334;28;21177;-73
2022/03/11 08:33:22;;;;;;;29.95;17.88;;;4.70;99.90;;;;;;4997791;28;20050;-73
2022/03/11 08:35:52;;;;;;;31.50;18.65;;;4.80;99.90;;;;;;4956530;28;134758;-72
2022/03/11 08:38:19;;;;;;;28.75;18.02;;;4.80;99.90;;;;;;4993584;28;20039;-73
2022/03/11 08:40:45;;;;;;;28.15;17.60;;;4.80;99.90;;;;;;4953605;28;277685;-73
2022/03/11 08:43:14;;;;;;;29.77;16.30;;;4.90;99.90;;;;;;4964274;28;20061;-72
2022/03/11 08:45:42;;;;;;;28.20;18.02;;;5.00;99.90;;;;;;4945329;28;21481;-73
2022/03/11 08:48:08;;;;;;;29.15;18.02;;;5.10;99.90;;;;;;4978886;28;20050;-72
2022/03/11 08:50:34;;;;;;;30.67;18.63;;;5.10;99.90;;;;;;4928044;28;266288;-72
2022/03/11 08:53:00;;;;;;;30.23;17.52;;;5.20;99.90;;;;;;4972056;28;20058;-72
2022/03/11 08:55:27;;;;;;;27.65;17.80;;;5.20;99.90;;;;;;4951090;28;100119;-72
2022/03/11 08:57:53;;;;;;;31.13;16.73;;;5.30;99.90;;;;;;4983548;28;20249;-71
2022/03/11 09:00:22;;;;;;;30.77;18.48;;;5.40;99.90;;;;;;4945326;28;250465;-73
2022/03/11 09:02:49;;;;;;;29.98;18.15;;;5.50;99.80;;;;;;4990161;28;20054;-73
2022/03/11 09:05:18;;;;;;;28.45;17.42;;;5.50;99.60;;;;;;4949713;28;141525;-73
2022/03/11 09:07:45;;;;;;;30.85;18.77;;;5.60;98.90;;;;;;4999888;28;20065;-73
2022/03/11 09:10:15;;;;;;;27.98;17.20;;;5.70;99.10;;;;;;4952981;28;251530;-73
2022/03/11 09:12:41;;;;;;;28.17;17.08;;;5.80;99.00;;;;;;4979466;28;20046;-73
2022/03/11 09:15:08;;;;;;;31.55;18.05;;;5.80;98.70;;;;;;4945061;28;171654;-73
2022/03/11 09:17:34;;;;;;;28.35;18.08;;;5.90;98.80;;;;;;4993004;28;20058;-72
2022/03/11 09:20:05;;;;;;;30.73;16.60;;;5.90;98.70;;;;;;4942491;28;256447;-72
2022/03/11 09:22:32;;;;;;;29.20;18.40;;;6.00;98.40;;;;;;4979308;28;20508;-72
2022/03/11 09:25:00;;;;;;;25.90;16.90;;;6.00;98.40;;;;;;4946596;28;272936;-72
2022/03/11 09:27:29;;;;;;;35.72;18.10;;;6.10;98.40;;;;;;4983592;28;20046;-72
2022/03/11 09:29:55;;;;;;;32.22;18.33;;;6.10;98.00;;;;;;4945672;28;87014;-72
2022/03/11 09:32:22;;;;;;;26.27;16.60;;;6.20;98.30;;;;;;4981692;28;20069;-72
2022/03/11 09:34:48;;;;;;;29.88;18.55;;;6.30;98.20;;;;;;4942211;28;204218;-72
2022/03/11 09:37:14;;;;;;;29.65;18.48;;;6.50;98.10;;;;;;4974721;28;20050;-72
2022/03/11 09:39:40;;;;;;;29.33;17.02;;;6.90;97.90;;;;;;4945695;28;159180;-72
2022/03/11 09:42:07;;;;;;;27.85;17.15;;;7.50;97.70;;;;;;5009196;28;20500;-72
2022/03/11 09:44:33;;;;;;;25.17;17.25;;;8.30;97.10;;;;;;4943816;28;254013;-73
2022/03/11 09:47:00;;;;;;;29.30;17.95;;;9.20;97.20;;;;;;5005088;28;20065;-72
2022/03/11 09:49:26;;;;;;;26.48;16.27;;;10.10;95.70;;;;;;4940666;28;164335;-72
2022/03/11 09:51:53;;;;;;;27.15;18.27;;;10.60;90.60;;;;;;4958491;28;20076;-72
2022/03/11 09:54:19;;;;;;;25.88;16.90;;;11.30;93.00;;;;;;4951732;28;203721;-72
2022/03/11 09:56:45;;;;;;;25.75;17.63;;;11.70;85.50;;;;;;4998491;28;20057;-72
2022/03/11 09:59:12;;;;;;;24.77;17.45;;;12.10;84.30;;;;;;4969010;28;247815;-72
2022/03/11 10:01:42;;;;;;;25.10;17.58;;;12.40;80.00;;;;;;4960994;28;20110;-71
2022/03/11 10:04:10;;;;;;;26.33;17.37;;;12.90;81.70;;;;;;4953040;28;249657;-71
2022/03/11 10:06:46;;;;;;;26.85;16.83;;;13.30;80.00;;;;;;4925360;28;20312;-72
2022/03/11 10:09:18;;;;;;;23.45;16.73;;;13.70;71.50;;;;;;4971022;28;274567;-72
2022/03/11 10:11:51;;;;;;;26.30;17.98;;;14.10;75.00;;;;;;4938870;28;20046;-72
2022/03/11 10:14:26;;;;;;;24.15;16.83;;;14.50;71.00;;;;;;4989617;28;109686;-72
2022/03/11 10:16:52;;;;;;;25.17;16.50;;;14.80;69.70;;;;;;4967912;28;20042;-72
2022/03/11 10:19:19;;;;;;;22.88;17.10;;;15.30;69.90;;;;;;4955920;28;126780;-72
2022/03/11 10:21:46;;;;;;;21.88;15.90;;;15.90;72.50;;;;;;4998471;28;20046;-71
2022/03/11 10:24:15;;;;;;;22.70;15.68;;;16.60;66.50;;;;;;4973130;28;273719;-71
2022/03/11 10:26:43;;;;;;;24.98;16.45;;;16.70;60.60;;;;;;4925958;28;20046;-72
2022/03/11 10:29:14;;;;;;;20.77;15.70;;;16.90;62.50;;;;;;4979948;28;50186;-72
2022/03/11 10:31:45;;;;;;;20.83;15.80;;;17.30;56.00;;;;;;4935034;28;20412;-72
2022/03/11 10:34:31;;;;;;;22.80;15.90;;;17.40;58.30;;;;;;4963149;28;20053;-71
2022/03/11 10:37:00;;;;;;;22.08;15.45;;;17.60;55.10;;;;;;4973598;28;20053;-72
2022/03/11 10:39:38;;;;;;;21.88;15.85;;;17.80;54.20;;;;;;4948767;28;46592;-73
2022/03/11 10:42:17;;;;;;;22.63;15.75;;;17.90;53.70;;;;;;4975718;28;20057;-72
2022/03/11 10:45:10;;;;;;;22.27;16.10;;;18.10;51.70;;;;;;4961923;28;20039;-75
2022/03/11 10:47:38;;;;;;;24.30;15.70;;;18.20;48.50;;;;;;4967383;28;20051;-74
2022/03/11 10:50:15;;;;;;;22.63;15.82;;;18.00;50.80;;;;;;4901369;28;150175;-74
2022/03/11 10:52:46;;;;;;;24.67;16.08;;;18.10;45.10;;;;;;4949956;28;20054;-74
2022/03/11 10:55:26;;;;;;;;;;;17.80;44.70;;;;;;4906733;28;187785;-74
2022/03/11 10:57:54;;;;;;;23.30;16.67;;;17.60;42.70;;;;;;4951990;28;19929;-74
2022/03/11 11:00:25;;;;;;;21.52;15.45;;;17.70;48.60;;;;;;4893361;29;217474;-74
2022/03/11 11:02:53;;;;;;;20.85;15.40;;;17.60;47.30;;;;;;4956980;28;20058;-74
2022/03/11 11:05:20;;;;;;;21.40;15.88;;;18.10;48.10;;;;;;4895505;28;144746;-73
2022/03/11 11:07:47;;;;;;;22.52;16.33;;;18.80;47.50;;;;;;4933012;28;20466;-72
2022/03/11 11:10:15;;;;;;;22.88;16.35;;;19.10;46.30;;;;;;4888179;28;44336;-70
2022/03/11 11:12:42;;;;;;;22.27;16.27;;;19.40;46.40;;;;;;4944643;28;20055;-71
2022/03/11 11:15:09;;;;;;;22.98;15.93;;;19.80;45.30;;;;;;4900179;28;214325;-71
2022/03/11 11:17:40;;;;;;;21.58;15.65;;;20.20;44.90;;;;;;4936335;28;20073;-72
2022/03/11 11:20:24;;;;;;;21.48;15.70;;;20.40;43.60;;;;;;4900207;28;169136;-72
2022/03/11 11:22:52;;;;;;;22.95;15.63;;;20.20;41.50;;;;;;4955980;28;20063;-73
2022/03/11 11:25:23;;;;;;;22.10;15.80;;;19.90;42.00;;;;;;4924229;28;33195;-73
2022/03/11 11:27:51;;;;;;;21.52;15.75;;;19.80;39.70;;;;;;4987653;28;20113;-73
2022/03/11 11:30:21;;;;;;;22.45;15.73;;;19.80;42.90;;;;;;4955977;28;260711;-71
2022/03/11 11:32:52;;;;;;;21.83;15.55;;;20.20;42.00;;;;;;4987679;28;20054;-72
2022/03/11 11:35:35;;;;;;;20.88;14.68;;;20.10;41.00;;;;;;4952039;28;132282;-72
2022/03/11 11:38:04;;;;;;;21.77;15.85;;;20.10;40.70;;;;;;4980829;28;20062;-71
2022/03/11 11:40:36;;;;;;;20.70;15.50;;;20.50;42.00;;;;;;4938342;28;269082;-72
2022/03/11 11:43:14;;;;;;;23.02;15.48;;;20.30;40.90;;;;;;4989598;28;20546;-72
2022/03/11 11:45:41;;;;;;;27.52;15.65;;;20.80;40.90;;;;;;4949070;28;272933;-71
2022/03/11 11:48:34;;;;;;;20.00;14.73;;;20.60;39.10;;;;;;4983525;28;20054;-72
2022/03/11 11:51:06;;;;;;;22.02;15.10;;;20.80;38.20;;;;;;4888178;28;20066;-72
2022/03/11 11:53:40;;;;;;;22.38;15.18;;;20.60;37.70;;;;;;4961227;28;20066;-72
2022/03/11 11:57:00;;;;;;;19.73;14.68;;;20.10;37.40;;;;;;4901260;28;150968;-72
2022/03/11 11:59:32;;;;;;;20.50;14.77;;;19.50;36.00;;;;;;4893300;28;35859;-72
2022/03/11 12:01:59;;;;;;;21.25;14.82;;;19.90;40.00;;;;;;4921719;29;20085;-72
2022/03/11 12:04:32;;;;;;;19.70;14.82;;;20.80;40.10;;;;;;4875993;29;216577;-72
2022/03/11 12:07:00;;;;;;;19.92;14.63;;;21.10;38.10;;;;;;4903483;29;20046;-72
2022/03/11 12:09:38;;;;;;;19.75;15.02;;;21.40;38.40;;;;;;4890327;28;177896;-72
2022/03/11 12:12:09;;;;;;;18.80;14.85;;;21.30;35.30;;;;;;4920529;29;20342;-72
2022/03/11 12:14:53;;;;;;;21.13;14.20;;;21.50;38.20;;;;;;4887003;28;213707;-71
2022/03/11 12:17:40;;;;;;;21.95;14.52;;;21.60;34.80;;;;;;4923907;29;20051;-72
2022/03/11 12:20:25;;;;;;;19.70;14.32;;;21.70;35.70;;;;;;4868194;29;72152;-72
2022/03/11 12:22:57;;;;;;;20.35;13.88;;;21.80;34.50;;;;;;4924295;29;20074;-72
2022/03/11 12:25:25;;;;;;;22.45;14.68;;;21.70;36.00;;;;;;4903563;28;255270;-72
2022/03/11 12:28:17;;;;;;;18.23;13.68;;;21.80;36.50;;;;;;4953462;28;20063;-73
2022/03/11 12:30:47;;;;;;;23.85;14.43;;;22.50;36.40;;;;;;4874977;28;224551;-73
2022/03/11 12:33:18;;;;;;;18.80;13.32;;;23.10;35.60;;;;;;4923308;29;20055;-73
2022/03/11 12:35:46;;;;;;;23.55;14.32;;;22.90;34.30;;;;;;4906522;28;225822;-71